sensor_id;sensor_type;location;lat;lon;timestamp;temperature;humidity
8105;DHT22;4095;48.942;9.104;2022-08-01T00:01:52;22.70;84.20
8105;DHT22;4095;48.942;9.104;2022-08-01T00:04:18;22.70;84.10
8105;DHT22;4095;48.942;9.104;2022-08-01T00:06:44;22.70;84.50
8105;DHT22;4095;48.942;9.104;2022-08-01T00:09:09;22.70;85.20
8105;DHT22;4095;48.942;9.104;2022-08-01T00:11:35;22.60;85.00
8105;DHT22;4095;48.942;9.104;2022-08-01T00:14:01;22.60;85.00
8105;DHT22;4095;48.942;9.104;2022-08-01T00:16:26;22.60;85.20
8105;DHT22;4095;48.942;9.104;2022-08-01T00:18:52;22.60;85.50
8105;DHT22;4095;48.942;9.104;2022-08-01T00:21:18;22.60;85.20
8105;DHT22;4095;48.942;9.104;2022-08-01T00:23:43;22.50;85.90
8105;DHT22;4095;48.942;9.104;2022-08-01T00:26:14;22.60;86.40
8105;DHT22;4095;48.942;9.104;2022-08-01T00:28:40;22.50;85.20
8105;DHT22;4095;48.942;9.104;2022-08-01T00:31:06;22.50;85.40
8105;DHT22;4095;48.942;9.104;2022-08-01T00:33:32;22.50;85.70
8105;DHT22;4095;48.942;9.104;2022-08-01T00:35:57;22.50;85.80
8105;DHT22;4095;48.942;9.104;2022-08-01T00:38:23;22.50;85.30
8105;DHT22;4095;48.942;9.104;2022-08-01T00:40:48;22.50;85.70
8105;DHT22;4095;48.942;9.104;2022-08-01T00:43:14;22.40;85.50
8105;DHT22;4095;48.942;9.104;2022-08-01T00:45:40;22.40;85.60
8105;DHT22;4095;48.942;9.104;2022-08-01T00:48:06;22.40;85.40
8105;DHT22;4095;48.942;9.104;2022-08-01T00:50:32;22.40;85.50
8105;DHT22;4095;48.942;9.104;2022-08-01T00:52:59;22.40;85.80
8105;DHT22;4095;48.942;9.104;2022-08-01T00:55:26;22.40;85.70
8105;DHT22;4095;48.942;9.104;2022-08-01T00:57:52;22.40;85.50
8105;DHT22;4095;48.942;9.104;2022-08-01T01:00:18;22.40;85.60
8105;DHT22;4095;48.942;9.104;2022-08-01T01:02:44;22.40;86.20
8105;DHT22;4095;48.942;9.104;2022-08-01T01:05:09;22.40;86.00
8105;DHT22;4095;48.942;9.104;2022-08-01T01:08:02;22.40;85.80
8105;DHT22;4095;48.942;9.104;2022-08-01T01:10:36;22.40;86.10
8105;DHT22;4095;48.942;9.104;2022-08-01T01:13:20;22.40;86.00
8105;DHT22;4095;48.942;9.104;2022-08-01T01:16:08;22.40;86.30
8105;DHT22;4095;48.942;9.104;2022-08-01T01:18:53;22.40;86.20
8105;DHT22;4095;48.942;9.104;2022-08-01T01:26:34;22.40;86.10
8105;DHT22;4095;48.942;9.104;2022-08-01T01:31:33;22.30;86.40
8105;DHT22;4095;48.942;9.104;2022-08-01T01:34:03;22.40;86.10
8105;DHT22;4095;48.942;9.104;2022-08-01T01:36:31;22.30;86.40
8105;DHT22;4095;48.942;9.104;2022-08-01T01:38:58;22.30;86.90
8105;DHT22;4095;48.942;9.104;2022-08-01T01:41:26;22.30;86.60
8105;DHT22;4095;48.942;9.104;2022-08-01T01:43:54;22.40;86.60
8105;DHT22;4095;48.942;9.104;2022-08-01T01:46:23;22.40;86.70
8105;DHT22;4095;48.942;9.104;2022-08-01T01:48:50;22.40;86.80
8105;DHT22;4095;48.942;9.104;2022-08-01T01:51:18;22.40;87.10
8105;DHT22;4095;48.942;9.104;2022-08-01T01:53:47;22.40;87.00
8105;DHT22;4095;48.942;9.104;2022-08-01T01:56:15;22.40;87.90
8105;DHT22;4095;48.942;9.104;2022-08-01T01:58:42;22.30;86.90
8105;DHT22;4095;48.942;9.104;2022-08-01T02:01:08;22.30;86.90
8105;DHT22;4095;48.942;9.104;2022-08-01T02:03:37;22.30;87.20
8105;DHT22;4095;48.942;9.104;2022-08-01T02:06:04;22.30;87.90
8105;DHT22;4095;48.942;9.104;2022-08-01T02:08:31;22.20;88.30
8105;DHT22;4095;48.942;9.104;2022-08-01T02:10:58;22.20;87.70
8105;DHT22;4095;48.942;9.104;2022-08-01T02:13:43;22.20;87.90
8105;DHT22;4095;48.942;9.104;2022-08-01T02:16:10;22.20;87.50
8105;DHT22;4095;48.942;9.104;2022-08-01T02:18:36;22.10;88.80
8105;DHT22;4095;48.942;9.104;2022-08-01T02:21:04;22.10;87.70
8105;DHT22;4095;48.942;9.104;2022-08-01T02:23:34;22.00;87.60
8105;DHT22;4095;48.942;9.104;2022-08-01T02:26:03;22.10;88.50
8105;DHT22;4095;48.942;9.104;2022-08-01T02:28:36;22.00;88.70
8105;DHT22;4095;48.942;9.104;2022-08-01T02:31:06;22.00;88.80
8105;DHT22;4095;48.942;9.104;2022-08-01T02:33:37;21.90;89.30
8105;DHT22;4095;48.942;9.104;2022-08-01T02:36:05;21.90;89.20
8105;DHT22;4095;48.942;9.104;2022-08-01T02:38:33;21.90;89.00
8105;DHT22;4095;48.942;9.104;2022-08-01T02:41:05;21.80;89.60
8105;DHT22;4095;48.942;9.104;2022-08-01T02:43:36;21.80;89.30
8105;DHT22;4095;48.942;9.104;2022-08-01T02:46:04;21.80;89.60
8105;DHT22;4095;48.942;9.104;2022-08-01T02:48:33;21.80;89.40
8105;DHT22;4095;48.942;9.104;2022-08-01T02:51:03;21.80;89.90
8105;DHT22;4095;48.942;9.104;2022-08-01T02:53:32;21.70;89.60
8105;DHT22;4095;48.942;9.104;2022-08-01T02:56:04;21.70;89.90
8105;DHT22;4095;48.942;9.104;2022-08-01T02:58:30;21.70;89.90
8105;DHT22;4095;48.942;9.104;2022-08-01T03:00:57;21.70;89.80
8105;DHT22;4095;48.942;9.104;2022-08-01T03:03:24;21.70;90.30
8105;DHT22;4095;48.942;9.104;2022-08-01T03:05:50;21.70;90.10
8105;DHT22;4095;48.942;9.104;2022-08-01T03:08:16;21.60;90.20
8105;DHT22;4095;48.942;9.104;2022-08-01T03:10:45;21.60;90.40
8105;DHT22;4095;48.942;9.104;2022-08-01T03:13:13;21.60;90.50
8105;DHT22;4095;48.942;9.104;2022-08-01T03:15:42;21.60;90.60
8105;DHT22;4095;48.942;9.104;2022-08-01T03:18:09;21.60;90.40
8105;DHT22;4095;48.942;9.104;2022-08-01T03:20:36;21.60;90.60
8105;DHT22;4095;48.942;9.104;2022-08-01T03:23:07;21.60;90.50
8105;DHT22;4095;48.942;9.104;2022-08-01T03:25:36;21.60;90.70
8105;DHT22;4095;48.942;9.104;2022-08-01T03:28:03;21.60;90.70
8105;DHT22;4095;48.942;9.104;2022-08-01T03:30:32;21.60;90.70
8105;DHT22;4095;48.942;9.104;2022-08-01T03:32:58;21.60;90.70
8105;DHT22;4095;48.942;9.104;2022-08-01T03:35:28;21.60;90.60
8105;DHT22;4095;48.942;9.104;2022-08-01T03:37:55;21.60;90.70
8105;DHT22;4095;48.942;9.104;2022-08-01T03:40:39;21.60;90.70
8105;DHT22;4095;48.942;9.104;2022-08-01T03:43:16;21.60;90.70
8105;DHT22;4095;48.942;9.104;2022-08-01T03:45:48;21.60;90.90
8105;DHT22;4095;48.942;9.104;2022-08-01T03:48:17;21.60;90.90
8105;DHT22;4095;48.942;9.104;2022-08-01T03:50:48;21.50;90.90
8105;DHT22;4095;48.942;9.104;2022-08-01T03:53:16;21.50;90.80
8105;DHT22;4095;48.942;9.104;2022-08-01T03:55:46;21.50;90.90
8105;DHT22;4095;48.942;9.104;2022-08-01T03:58:13;21.50;91.10
8105;DHT22;4095;48.942;9.104;2022-08-01T04:00:39;21.50;91.30
8105;DHT22;4095;48.942;9.104;2022-08-01T04:03:10;21.40;91.20
8105;DHT22;4095;48.942;9.104;2022-08-01T04:05:37;21.40;91.20
8105;DHT22;4095;48.942;9.104;2022-08-01T04:08:05;21.40;91.40
8105;DHT22;4095;48.942;9.104;2022-08-01T04:10:31;21.40;91.40
8105;DHT22;4095;48.942;9.104;2022-08-01T04:12:57;21.40;91.50
8105;DHT22;4095;48.942;9.104;2022-08-01T04:15:22;21.40;91.50
8105;DHT22;4095;48.942;9.104;2022-08-01T04:17:49;21.40;91.60
8105;DHT22;4095;48.942;9.104;2022-08-01T04:20:15;21.40;91.60
8105;DHT22;4095;48.942;9.104;2022-08-01T04:22:41;21.40;91.50
8105;DHT22;4095;48.942;9.104;2022-08-01T04:25:26;21.40;91.70
8105;DHT22;4095;48.942;9.104;2022-08-01T04:27:54;21.40;91.80
8105;DHT22;4095;48.942;9.104;2022-08-01T04:30:23;21.40;92.10
8105;DHT22;4095;48.942;9.104;2022-08-01T04:32:54;21.50;92.20
8105;DHT22;4095;48.942;9.104;2022-08-01T04:35:21;21.50;92.00
8105;DHT22;4095;48.942;9.104;2022-08-01T04:37:47;21.50;91.90
8105;DHT22;4095;48.942;9.104;2022-08-01T04:40:14;21.50;92.00
8105;DHT22;4095;48.942;9.104;2022-08-01T04:42:41;21.60;91.80
8105;DHT22;4095;48.942;9.104;2022-08-01T04:45:08;21.60;92.00
8105;DHT22;4095;48.942;9.104;2022-08-01T04:47:35;21.60;91.90
8105;DHT22;4095;48.942;9.104;2022-08-01T04:50:04;21.70;91.70
8105;DHT22;4095;48.942;9.104;2022-08-01T04:52:33;21.70;91.80
8105;DHT22;4095;48.942;9.104;2022-08-01T04:54:59;21.80;91.80
8105;DHT22;4095;48.942;9.104;2022-08-01T04:57:25;21.80;91.70
8105;DHT22;4095;48.942;9.104;2022-08-01T04:59:51;21.90;91.70
8105;DHT22;4095;48.942;9.104;2022-08-01T05:02:22;22.00;91.80
8105;DHT22;4095;48.942;9.104;2022-08-01T05:04:48;22.10;91.80
8105;DHT22;4095;48.942;9.104;2022-08-01T05:07:14;22.20;91.70
8105;DHT22;4095;48.942;9.104;2022-08-01T05:09:42;22.20;91.70
8105;DHT22;4095;48.942;9.104;2022-08-01T05:12:08;22.30;91.90
8105;DHT22;4095;48.942;9.104;2022-08-01T05:14:34;22.30;92.10
8105;DHT22;4095;48.942;9.104;2022-08-01T05:17:04;22.40;92.20
8105;DHT22;4095;48.942;9.104;2022-08-01T05:19:30;22.40;92.00
8105;DHT22;4095;48.942;9.104;2022-08-01T05:22:04;22.40;92.20
8105;DHT22;4095;48.942;9.104;2022-08-01T05:24:40;22.50;92.40
8105;DHT22;4095;48.942;9.104;2022-08-01T05:27:06;22.60;91.70
8105;DHT22;4095;48.942;9.104;2022-08-01T05:29:33;22.60;91.40
8105;DHT22;4095;48.942;9.104;2022-08-01T05:31:59;22.70;91.80
8105;DHT22;4095;48.942;9.104;2022-08-01T05:34:25;22.80;91.60
8105;DHT22;4095;48.942;9.104;2022-08-01T05:36:51;22.80;91.40
8105;DHT22;4095;48.942;9.104;2022-08-01T05:39:16;22.90;91.60
8105;DHT22;4095;48.942;9.104;2022-08-01T05:41:42;23.10;91.60
8105;DHT22;4095;48.942;9.104;2022-08-01T05:44:08;23.10;91.30
8105;DHT22;4095;48.942;9.104;2022-08-01T05:46:35;23.10;91.40
8105;DHT22;4095;48.942;9.104;2022-08-01T05:49:01;23.10;91.60
8105;DHT22;4095;48.942;9.104;2022-08-01T05:51:27;23.20;91.40
8105;DHT22;4095;48.942;9.104;2022-08-01T05:53:53;23.30;91.70
8105;DHT22;4095;48.942;9.104;2022-08-01T05:56:19;23.40;91.60
8105;DHT22;4095;48.942;9.104;2022-08-01T05:58:46;23.40;91.50
8105;DHT22;4095;48.942;9.104;2022-08-01T06:01:11;23.40;91.50
8105;DHT22;4095;48.942;9.104;2022-08-01T06:03:37;23.50;91.70
8105;DHT22;4095;48.942;9.104;2022-08-01T06:06:03;23.60;91.90
8105;DHT22;4095;48.942;9.104;2022-08-01T06:08:29;23.60;91.50
8105;DHT22;4095;48.942;9.104;2022-08-01T06:10:55;23.70;91.40
8105;DHT22;4095;48.942;9.104;2022-08-01T06:13:21;23.70;91.30
8105;DHT22;4095;48.942;9.104;2022-08-01T06:15:47;23.80;91.30
8105;DHT22;4095;48.942;9.104;2022-08-01T06:18:13;23.80;91.10
8105;DHT22;4095;48.942;9.104;2022-08-01T06:20:39;23.90;91.20
8105;DHT22;4095;48.942;9.104;2022-08-01T06:23:05;24.00;91.20
8105;DHT22;4095;48.942;9.104;2022-08-01T06:25:31;24.00;91.00
8105;DHT22;4095;48.942;9.104;2022-08-01T06:27:57;24.10;91.20
8105;DHT22;4095;48.942;9.104;2022-08-01T06:30:23;24.20;91.20
8105;DHT22;4095;48.942;9.104;2022-08-01T06:32:48;24.20;91.10
8105;DHT22;4095;48.942;9.104;2022-08-01T06:35:14;24.30;90.90
8105;DHT22;4095;48.942;9.104;2022-08-01T06:37:41;24.40;90.90
8105;DHT22;4095;48.942;9.104;2022-08-01T06:40:08;24.40;90.70
8105;DHT22;4095;48.942;9.104;2022-08-01T06:42:34;24.50;91.00
8105;DHT22;4095;48.942;9.104;2022-08-01T06:45:11;24.60;90.90
8105;DHT22;4095;48.942;9.104;2022-08-01T06:47:38;24.70;90.70
8105;DHT22;4095;48.942;9.104;2022-08-01T06:50:06;24.80;90.70
8105;DHT22;4095;48.942;9.104;2022-08-01T06:52:32;24.90;90.80
8105;DHT22;4095;48.942;9.104;2022-08-01T06:54:58;24.90;90.20
8105;DHT22;4095;48.942;9.104;2022-08-01T06:57:24;25.00;90.10
8105;DHT22;4095;48.942;9.104;2022-08-01T06:59:50;25.00;90.10
8105;DHT22;4095;48.942;9.104;2022-08-01T07:02:15;25.10;90.20
8105;DHT22;4095;48.942;9.104;2022-08-01T07:04:41;25.20;90.00
8105;DHT22;4095;48.942;9.104;2022-08-01T07:07:07;25.30;90.50
8105;DHT22;4095;48.942;9.104;2022-08-01T07:09:32;25.40;90.00
8105;DHT22;4095;48.942;9.104;2022-08-01T07:11:58;25.50;90.10
8105;DHT22;4095;48.942;9.104;2022-08-01T07:14:24;25.60;89.70
8105;DHT22;4095;48.942;9.104;2022-08-01T07:16:50;25.60;88.70
8105;DHT22;4095;48.942;9.104;2022-08-01T07:19:16;25.60;89.30
8105;DHT22;4095;48.942;9.104;2022-08-01T07:21:42;25.70;89.00
8105;DHT22;4095;48.942;9.104;2022-08-01T07:24:10;25.70;89.40
8105;DHT22;4095;48.942;9.104;2022-08-01T07:26:36;25.70;89.50
8105;DHT22;4095;48.942;9.104;2022-08-01T07:29:01;25.70;88.90
8105;DHT22;4095;48.942;9.104;2022-08-01T07:31:28;25.70;88.70
8105;DHT22;4095;48.942;9.104;2022-08-01T07:33:54;25.80;89.50
8105;DHT22;4095;48.942;9.104;2022-08-01T07:36:19;25.80;89.00
8105;DHT22;4095;48.942;9.104;2022-08-01T07:38:45;25.80;89.70
8105;DHT22;4095;48.942;9.104;2022-08-01T07:41:11;25.80;88.60
8105;DHT22;4095;48.942;9.104;2022-08-01T07:43:37;25.90;88.70
8105;DHT22;4095;48.942;9.104;2022-08-01T07:46:03;26.00;88.70
8105;DHT22;4095;48.942;9.104;2022-08-01T07:48:29;26.00;88.20
8105;DHT22;4095;48.942;9.104;2022-08-01T07:50:55;26.10;88.10
8105;DHT22;4095;48.942;9.104;2022-08-01T07:53:21;26.00;87.40
8105;DHT22;4095;48.942;9.104;2022-08-01T07:55:47;26.10;87.80
8105;DHT22;4095;48.942;9.104;2022-08-01T07:58:13;26.20;87.70
8105;DHT22;4095;48.942;9.104;2022-08-01T08:00:39;26.30;87.70
8105;DHT22;4095;48.942;9.104;2022-08-01T08:03:05;26.40;86.60
8105;DHT22;4095;48.942;9.104;2022-08-01T08:05:31;26.50;86.80
8105;DHT22;4095;48.942;9.104;2022-08-01T08:08:01;26.50;86.50
8105;DHT22;4095;48.942;9.104;2022-08-01T08:10:26;26.60;84.90
8105;DHT22;4095;48.942;9.104;2022-08-01T08:12:52;26.70;85.70
8105;DHT22;4095;48.942;9.104;2022-08-01T08:15:18;26.70;84.90
8105;DHT22;4095;48.942;9.104;2022-08-01T08:17:43;26.80;85.80
8105;DHT22;4095;48.942;9.104;2022-08-01T08:20:09;26.90;85.80
8105;DHT22;4095;48.942;9.104;2022-08-01T08:22:35;27.10;85.60
8105;DHT22;4095;48.942;9.104;2022-08-01T08:25:00;27.20;85.40
8105;DHT22;4095;48.942;9.104;2022-08-01T08:27:26;27.30;84.60
8105;DHT22;4095;48.942;9.104;2022-08-01T08:29:52;27.20;85.00
8105;DHT22;4095;48.942;9.104;2022-08-01T08:32:18;27.30;83.50
8105;DHT22;4095;48.942;9.104;2022-08-01T08:34:43;27.30;84.40
8105;DHT22;4095;48.942;9.104;2022-08-01T08:37:09;27.40;85.20
8105;DHT22;4095;48.942;9.104;2022-08-01T08:39:35;27.40;83.40
8105;DHT22;4095;48.942;9.104;2022-08-01T08:42:04;27.40;84.30
8105;DHT22;4095;48.942;9.104;2022-08-01T08:44:31;27.50;84.40
8105;DHT22;4095;48.942;9.104;2022-08-01T08:46:58;27.60;84.30
8105;DHT22;4095;48.942;9.104;2022-08-01T08:49:27;27.60;83.90
8105;DHT22;4095;48.942;9.104;2022-08-01T08:51:53;27.60;84.20
8105;DHT22;4095;48.942;9.104;2022-08-01T08:54:23;27.60;83.70
8105;DHT22;4095;48.942;9.104;2022-08-01T08:56:51;27.70;84.40
8105;DHT22;4095;48.942;9.104;2022-08-01T08:59:17;27.70;84.00
8105;DHT22;4095;48.942;9.104;2022-08-01T09:01:43;27.70;83.60
8105;DHT22;4095;48.942;9.104;2022-08-01T09:04:09;27.70;83.70
8105;DHT22;4095;48.942;9.104;2022-08-01T09:06:36;27.70;83.10
8105;DHT22;4095;48.942;9.104;2022-08-01T09:09:02;27.70;84.30
8105;DHT22;4095;48.942;9.104;2022-08-01T09:11:27;27.70;83.60
8105;DHT22;4095;48.942;9.104;2022-08-01T09:14:08;27.80;82.80
8105;DHT22;4095;48.942;9.104;2022-08-01T09:16:37;27.90;83.60
8105;DHT22;4095;48.942;9.104;2022-08-01T09:19:11;28.00;83.70
8105;DHT22;4095;48.942;9.104;2022-08-01T09:21:38;28.00;83.20
8105;DHT22;4095;48.942;9.104;2022-08-01T09:24:15;28.20;83.30
8105;DHT22;4095;48.942;9.104;2022-08-01T09:26:41;28.30;82.00
8105;DHT22;4095;48.942;9.104;2022-08-01T09:29:08;28.30;82.40
8105;DHT22;4095;48.942;9.104;2022-08-01T09:31:43;28.20;82.80
8105;DHT22;4095;48.942;9.104;2022-08-01T09:34:09;28.20;82.20
8105;DHT22;4095;48.942;9.104;2022-08-01T09:36:50;28.30;82.40
8105;DHT22;4095;48.942;9.104;2022-08-01T09:39:26;28.60;82.90
8105;DHT22;4095;48.942;9.104;2022-08-01T09:41:53;28.70;81.40
8105;DHT22;4095;48.942;9.104;2022-08-01T09:44:19;28.80;80.70
8105;DHT22;4095;48.942;9.104;2022-08-01T09:47:00;28.90;81.00
8105;DHT22;4095;48.942;9.104;2022-08-01T09:49:35;29.00;80.00
8105;DHT22;4095;48.942;9.104;2022-08-01T09:54:55;29.20;79.60
8105;DHT22;4095;48.942;9.104;2022-08-01T09:57:22;29.20;79.60
8105;DHT22;4095;48.942;9.104;2022-08-01T09:59:51;29.20;79.60
8105;DHT22;4095;48.942;9.104;2022-08-01T10:05:00;29.10;78.40
8105;DHT22;4095;48.942;9.104;2022-08-01T10:07:26;29.00;78.30
8105;DHT22;4095;48.942;9.104;2022-08-01T10:09:52;29.00;79.00
8105;DHT22;4095;48.942;9.104;2022-08-01T10:12:20;29.20;79.10
8105;DHT22;4095;48.942;9.104;2022-08-01T10:14:48;29.30;79.20
8105;DHT22;4095;48.942;9.104;2022-08-01T10:17:16;29.50;79.00
8105;DHT22;4095;48.942;9.104;2022-08-01T10:19:43;29.60;77.90
8105;DHT22;4095;48.942;9.104;2022-08-01T10:22:11;29.60;78.30
8105;DHT22;4095;48.942;9.104;2022-08-01T10:24:38;29.60;77.20
8105;DHT22;4095;48.942;9.104;2022-08-01T10:27:08;29.70;77.90
8105;DHT22;4095;48.942;9.104;2022-08-01T10:29:47;29.70;76.80
8105;DHT22;4095;48.942;9.104;2022-08-01T10:32:16;29.90;77.50
8105;DHT22;4095;48.942;9.104;2022-08-01T10:34:42;30.00;76.50
8105;DHT22;4095;48.942;9.104;2022-08-01T10:37:08;30.20;76.80
8105;DHT22;4095;48.942;9.104;2022-08-01T10:39:35;30.30;77.50
8105;DHT22;4095;48.942;9.104;2022-08-01T10:42:01;30.50;76.70
8105;DHT22;4095;48.942;9.104;2022-08-01T10:44:30;30.60;75.80
8105;DHT22;4095;48.942;9.104;2022-08-01T10:47:02;30.50;75.20
8105;DHT22;4095;48.942;9.104;2022-08-01T10:49:34;30.60;75.50
8105;DHT22;4095;48.942;9.104;2022-08-01T10:52:02;30.50;75.70
8105;DHT22;4095;48.942;9.104;2022-08-01T10:54:27;30.40;75.00
8105;DHT22;4095;48.942;9.104;2022-08-01T10:56:54;30.20;75.50
8105;DHT22;4095;48.942;9.104;2022-08-01T10:59:27;30.30;76.70
8105;DHT22;4095;48.942;9.104;2022-08-01T11:02:01;30.50;76.60
8105;DHT22;4095;48.942;9.104;2022-08-01T11:04:54;30.70;75.60
8105;DHT22;4095;48.942;9.104;2022-08-01T11:07:51;30.90;74.90
8105;DHT22;4095;48.942;9.104;2022-08-01T11:12:58;30.90;74.80
8105;DHT22;4095;48.942;9.104;2022-08-01T11:15:26;30.90;73.30
8105;DHT22;4095;48.942;9.104;2022-08-01T11:17:54;31.10;73.50
8105;DHT22;4095;48.942;9.104;2022-08-01T11:25:25;31.10;73.90
8105;DHT22;4095;48.942;9.104;2022-08-01T11:30:47;31.10;72.10
8105;DHT22;4095;48.942;9.104;2022-08-01T11:33:14;31.30;71.90
8105;DHT22;4095;48.942;9.104;2022-08-01T11:38:38;31.40;71.50
8105;DHT22;4095;48.942;9.104;2022-08-01T11:41:22;31.00;72.50
8105;DHT22;4095;48.942;9.104;2022-08-01T11:44:02;31.20;72.40
8105;DHT22;4095;48.942;9.104;2022-08-01T11:51:59;31.50;71.20
8105;DHT22;4095;48.942;9.104;2022-08-01T11:54:27;31.40;72.60
8105;DHT22;4095;48.942;9.104;2022-08-01T11:56:55;31.50;72.50
8105;DHT22;4095;48.942;9.104;2022-08-01T11:59:22;31.60;71.90
8105;DHT22;4095;48.942;9.104;2022-08-01T12:01:48;31.60;71.30
8105;DHT22;4095;48.942;9.104;2022-08-01T12:04:13;31.80;70.40
8105;DHT22;4095;48.942;9.104;2022-08-01T12:06:39;32.00;71.10
8105;DHT22;4095;48.942;9.104;2022-08-01T12:09:22;32.20;70.40
8105;DHT22;4095;48.942;9.104;2022-08-01T12:11:48;32.40;70.10
8105;DHT22;4095;48.942;9.104;2022-08-01T12:14:21;32.50;69.80
8105;DHT22;4095;48.942;9.104;2022-08-01T12:16:53;32.50;69.40
8105;DHT22;4095;48.942;9.104;2022-08-01T12:19:24;32.60;68.50
8105;DHT22;4095;48.942;9.104;2022-08-01T12:22:13;32.60;68.40
8105;DHT22;4095;48.942;9.104;2022-08-01T12:24:40;32.70;69.50
8105;DHT22;4095;48.942;9.104;2022-08-01T12:27:08;32.80;69.60
8105;DHT22;4095;48.942;9.104;2022-08-01T12:29:44;32.80;67.80
8105;DHT22;4095;48.942;9.104;2022-08-01T12:32:25;32.90;67.90
8105;DHT22;4095;48.942;9.104;2022-08-01T12:34:53;32.80;68.00
8105;DHT22;4095;48.942;9.104;2022-08-01T12:37:19;32.60;68.40
8105;DHT22;4095;48.942;9.104;2022-08-01T12:39:45;32.50;69.40
8105;DHT22;4095;48.942;9.104;2022-08-01T12:42:11;32.50;68.40
8105;DHT22;4095;48.942;9.104;2022-08-01T12:44:38;32.50;69.20
8105;DHT22;4095;48.942;9.104;2022-08-01T12:47:05;32.50;69.20
8105;DHT22;4095;48.942;9.104;2022-08-01T12:49:37;32.50;69.00
8105;DHT22;4095;48.942;9.104;2022-08-01T12:52:04;32.60;68.80
8105;DHT22;4095;48.942;9.104;2022-08-01T12:54:31;32.40;68.20
8105;DHT22;4095;48.942;9.104;2022-08-01T12:57:23;32.30;68.80
8105;DHT22;4095;48.942;9.104;2022-08-01T12:59:52;32.10;68.70
8105;DHT22;4095;48.942;9.104;2022-08-01T13:02:18;32.00;69.20
8105;DHT22;4095;48.942;9.104;2022-08-01T13:04:51;32.00;69.10
8105;DHT22;4095;48.942;9.104;2022-08-01T13:07:17;31.90;69.80
8105;DHT22;4095;48.942;9.104;2022-08-01T13:09:51;31.70;70.40
8105;DHT22;4095;48.942;9.104;2022-08-01T13:12:16;31.60;70.80
8105;DHT22;4095;48.942;9.104;2022-08-01T13:14:42;31.60;70.90
8105;DHT22;4095;48.942;9.104;2022-08-01T13:17:07;31.50;70.50
8105;DHT22;4095;48.942;9.104;2022-08-01T13:19:46;31.40;69.90
8105;DHT22;4095;48.942;9.104;2022-08-01T13:22:13;31.40;70.70
8105;DHT22;4095;48.942;9.104;2022-08-01T13:24:38;31.30;70.80
8105;DHT22;4095;48.942;9.104;2022-08-01T13:27:04;31.30;71.10
8105;DHT22;4095;48.942;9.104;2022-08-01T13:29:36;31.30;71.00
8105;DHT22;4095;48.942;9.104;2022-08-01T13:32:18;31.30;70.60
8105;DHT22;4095;48.942;9.104;2022-08-01T13:34:44;31.40;71.40
8105;DHT22;4095;48.942;9.104;2022-08-01T13:37:09;31.40;72.40
8105;DHT22;4095;48.942;9.104;2022-08-01T13:39:35;31.40;71.10
8105;DHT22;4095;48.942;9.104;2022-08-01T13:42:08;31.40;70.70
8105;DHT22;4095;48.942;9.104;2022-08-01T13:44:34;31.30;70.60
8105;DHT22;4095;48.942;9.104;2022-08-01T13:46:59;31.20;71.20
8105;DHT22;4095;48.942;9.104;2022-08-01T13:49:25;31.20;71.80
8105;DHT22;4095;48.942;9.104;2022-08-01T13:51:50;31.20;70.80
8105;DHT22;4095;48.942;9.104;2022-08-01T13:54:16;31.10;72.00
8105;DHT22;4095;48.942;9.104;2022-08-01T13:56:42;31.00;70.40
8105;DHT22;4095;48.942;9.104;2022-08-01T13:59:08;30.90;71.00
8105;DHT22;4095;48.942;9.104;2022-08-01T14:01:34;30.90;70.30
8105;DHT22;4095;48.942;9.104;2022-08-01T14:04:00;30.80;70.30
8105;DHT22;4095;48.942;9.104;2022-08-01T14:06:26;30.80;71.90
8105;DHT22;4095;48.942;9.104;2022-08-01T14:08:51;30.90;71.40
8105;DHT22;4095;48.942;9.104;2022-08-01T14:11:17;31.00;71.40
8105;DHT22;4095;48.942;9.104;2022-08-01T14:13:43;31.00;70.80
8105;DHT22;4095;48.942;9.104;2022-08-01T14:16:08;31.10;71.40
8105;DHT22;4095;48.942;9.104;2022-08-01T14:18:34;31.10;71.20
8105;DHT22;4095;48.942;9.104;2022-08-01T14:21:00;31.10;70.70
8105;DHT22;4095;48.942;9.104;2022-08-01T14:23:26;31.00;71.10
8105;DHT22;4095;48.942;9.104;2022-08-01T14:25:52;31.00;70.30
8105;DHT22;4095;48.942;9.104;2022-08-01T14:28:17;30.90;71.30
8105;DHT22;4095;48.942;9.104;2022-08-01T14:30:44;30.90;71.40
8105;DHT22;4095;48.942;9.104;2022-08-01T14:33:10;30.90;71.30
8105;DHT22;4095;48.942;9.104;2022-08-01T14:35:36;31.00;70.40
8105;DHT22;4095;48.942;9.104;2022-08-01T14:38:02;31.00;70.50
8105;DHT22;4095;48.942;9.104;2022-08-01T14:40:28;31.00;70.10
8105;DHT22;4095;48.942;9.104;2022-08-01T14:42:54;30.90;70.30
8105;DHT22;4095;48.942;9.104;2022-08-01T14:45:19;31.00;70.40
8105;DHT22;4095;48.942;9.104;2022-08-01T14:47:45;31.00;71.10
8105;DHT22;4095;48.942;9.104;2022-08-01T14:50:13;31.00;70.40
8105;DHT22;4095;48.942;9.104;2022-08-01T14:52:39;31.00;70.10
8105;DHT22;4095;48.942;9.104;2022-08-01T14:55:06;31.00;70.40
8105;DHT22;4095;48.942;9.104;2022-08-01T14:57:32;30.80;69.30
8105;DHT22;4095;48.942;9.104;2022-08-01T14:59:58;30.80;70.30
8105;DHT22;4095;48.942;9.104;2022-08-01T15:02:23;30.70;69.70
8105;DHT22;4095;48.942;9.104;2022-08-01T15:04:49;30.80;71.00
8105;DHT22;4095;48.942;9.104;2022-08-01T15:07:16;30.80;70.30
8105;DHT22;4095;48.942;9.104;2022-08-01T15:09:42;30.80;69.80
8105;DHT22;4095;48.942;9.104;2022-08-01T15:12:09;30.80;69.80
8105;DHT22;4095;48.942;9.104;2022-08-01T15:14:35;30.70;70.20
8105;DHT22;4095;48.942;9.104;2022-08-01T15:17:18;30.70;70.20
8105;DHT22;4095;48.942;9.104;2022-08-01T15:19:45;30.70;69.80
8105;DHT22;4095;48.942;9.104;2022-08-01T15:22:11;30.60;70.60
8105;DHT22;4095;48.942;9.104;2022-08-01T15:24:37;30.60;70.20
8105;DHT22;4095;48.942;9.104;2022-08-01T15:27:04;30.60;70.40
8105;DHT22;4095;48.942;9.104;2022-08-01T15:29:29;30.70;70.20
8105;DHT22;4095;48.942;9.104;2022-08-01T15:31:55;30.70;70.00
8105;DHT22;4095;48.942;9.104;2022-08-01T15:34:21;30.70;69.80
8105;DHT22;4095;48.942;9.104;2022-08-01T15:36:47;30.70;70.20
8105;DHT22;4095;48.942;9.104;2022-08-01T15:39:12;30.60;70.10
8105;DHT22;4095;48.942;9.104;2022-08-01T15:41:38;30.60;69.40
8105;DHT22;4095;48.942;9.104;2022-08-01T15:44:03;30.50;70.10
8105;DHT22;4095;48.942;9.104;2022-08-01T15:46:29;30.50;70.10
8105;DHT22;4095;48.942;9.104;2022-08-01T15:48:55;30.50;69.90
8105;DHT22;4095;48.942;9.104;2022-08-01T15:51:21;30.40;69.50
8105;DHT22;4095;48.942;9.104;2022-08-01T15:53:47;30.50;70.70
8105;DHT22;4095;48.942;9.104;2022-08-01T15:56:13;30.50;71.40
8105;DHT22;4095;48.942;9.104;2022-08-01T15:58:39;30.50;70.10
8105;DHT22;4095;48.942;9.104;2022-08-01T16:01:04;30.50;70.40
8105;DHT22;4095;48.942;9.104;2022-08-01T16:03:30;30.50;70.40
8105;DHT22;4095;48.942;9.104;2022-08-01T16:05:56;30.30;69.50
8105;DHT22;4095;48.942;9.104;2022-08-01T16:08:21;30.40;70.30
8105;DHT22;4095;48.942;9.104;2022-08-01T16:10:47;30.30;69.90
8105;DHT22;4095;48.942;9.104;2022-08-01T16:13:13;30.20;70.30
8105;DHT22;4095;48.942;9.104;2022-08-01T16:15:38;30.20;70.70
8105;DHT22;4095;48.942;9.104;2022-08-01T16:18:09;30.20;70.20
8105;DHT22;4095;48.942;9.104;2022-08-01T16:20:37;30.10;70.90
8105;DHT22;4095;48.942;9.104;2022-08-01T16:23:03;30.10;70.50
8105;DHT22;4095;48.942;9.104;2022-08-01T16:25:28;30.00;70.80
8105;DHT22;4095;48.942;9.104;2022-08-01T16:27:54;30.00;70.50
8105;DHT22;4095;48.942;9.104;2022-08-01T16:30:20;30.00;71.80
8105;DHT22;4095;48.942;9.104;2022-08-01T16:32:45;29.90;70.90
8105;DHT22;4095;48.942;9.104;2022-08-01T16:35:11;29.90;71.50
8105;DHT22;4095;48.942;9.104;2022-08-01T16:37:36;29.90;72.00
8105;DHT22;4095;48.942;9.104;2022-08-01T16:40:03;29.90;70.80